sensor_id;sensor_type;location;lat;lon;timestamp;P1;durP1;ratioP1;P2;durP2;ratioP2
37805;SDS011;25082;50.870;0.022;2022-07-29T00:00:06;4.03;;;1.38;;
37805;SDS011;25082;50.870;0.022;2022-07-29T00:02:33;5.55;;;1.45;;
37805;SDS011;25082;50.870;0.022;2022-07-29T00:04:59;3.05;;;1.27;;
37805;SDS011;25082;50.870;0.022;2022-07-29T00:07:26;2.30;;;1.40;;
37805;SDS011;25082;50.870;0.022;2022-07-29T00:09:51;2.25;;;1.17;;
37805;SDS011;25082;50.870;0.022;2022-07-29T00:12:21;3.80;;;1.45;;
37805;SDS011;25082;50.870;0.022;2022-07-29T00:14:48;2.63;;;1.30;;
37805;SDS011;25082;50.870;0.022;2022-07-29T00:17:14;3.53;;;1.15;;
37805;SDS011;25082;50.870;0.022;2022-07-29T00:19:39;4.90;;;1.65;;
37805;SDS011;25082;50.870;0.022;2022-07-29T00:22:05;2.47;;;1.20;;
37805;SDS011;25082;50.870;0.022;2022-07-29T00:24:31;2.80;;;1.20;;
37805;SDS011;25082;50.870;0.022;2022-07-29T00:26:57;2.35;;;1.38;;
37805;SDS011;25082;50.870;0.022;2022-07-29T00:29:23;3.65;;;1.40;;
37805;SDS011;25082;50.870;0.022;2022-07-29T00:31:49;3.47;;;1.30;;
37805;SDS011;25082;50.870;0.022;2022-07-29T00:34:15;3.33;;;1.45;;
37805;SDS011;25082;50.870;0.022;2022-07-29T00:36:59;4.40;;;1.42;;
37805;SDS011;25082;50.870;0.022;2022-07-29T00:39:25;3.13;;;1.38;;
37805;SDS011;25082;50.870;0.022;2022-07-29T00:41:51;2.15;;;1.27;;
37805;SDS011;25082;50.870;0.022;2022-07-29T00:44:17;2.47;;;1.38;;
37805;SDS011;25082;50.870;0.022;2022-07-29T00:46:42;2.78;;;1.20;;
37805;SDS011;25082;50.870;0.022;2022-07-29T00:49:08;2.05;;;1.23;;
37805;SDS011;25082;50.870;0.022;2022-07-29T00:51:35;4.22;;;1.70;;
37805;SDS011;25082;50.870;0.022;2022-07-29T00:54:02;4.75;;;1.45;;
37805;SDS011;25082;50.870;0.022;2022-07-29T00:56:29;3.53;;;1.30;;
37805;SDS011;25082;50.870;0.022;2022-07-29T00:58:57;1.48;;;1.10;;
37805;SDS011;25082;50.870;0.022;2022-07-29T01:01:23;2.70;;;1.52;;
37805;SDS011;25082;50.870;0.022;2022-07-29T01:03:49;1.48;;;1.15;;
37805;SDS011;25082;50.870;0.022;2022-07-29T01:06:15;2.60;;;1.40;;
37805;SDS011;25082;50.870;0.022;2022-07-29T01:08:42;1.50;;;1.00;;
37805;SDS011;25082;50.870;0.022;2022-07-29T01:11:09;1.25;;;1.00;;
37805;SDS011;25082;50.870;0.022;2022-07-29T01:13:35;2.55;;;1.40;;
37805;SDS011;25082;50.870;0.022;2022-07-29T01:16:10;1.02;;;0.98;;
37805;SDS011;25082;50.870;0.022;2022-07-29T01:18:44;2.25;;;0.88;;
37805;SDS011;25082;50.870;0.022;2022-07-29T01:29:43;1.77;;;1.35;;
37805;SDS011;25082;50.870;0.022;2022-07-29T01:32:15;1.80;;;1.10;;
37805;SDS011;25082;50.870;0.022;2022-07-29T01:40:09;4.57;;;1.13;;
37805;SDS011;25082;50.870;0.022;2022-07-29T01:42:45;1.90;;;1.02;;
37805;SDS011;25082;50.870;0.022;2022-07-29T01:48:53;3.63;;;1.23;;
37805;SDS011;25082;50.870;0.022;2022-07-29T01:56:51;1.48;;;1.00;;
37805;SDS011;25082;50.870;0.022;2022-07-29T01:59:20;2.25;;;1.42;;
37805;SDS011;25082;50.870;0.022;2022-07-29T02:01:47;2.55;;;1.42;;
37805;SDS011;25082;50.870;0.022;2022-07-29T02:04:13;1.58;;;1.20;;
37805;SDS011;25082;50.870;0.022;2022-07-29T02:06:42;3.05;;;1.15;;
37805;SDS011;25082;50.870;0.022;2022-07-29T02:09:10;1.27;;;0.93;;
37805;SDS011;25082;50.870;0.022;2022-07-29T02:11:39;2.60;;;1.10;;
37805;SDS011;25082;50.870;0.022;2022-07-29T02:14:10;2.88;;;1.05;;
37805;SDS011;25082;50.870;0.022;2022-07-29T02:16:38;1.98;;;1.20;;
37805;SDS011;25082;50.870;0.022;2022-07-29T02:19:06;3.65;;;1.17;;
37805;SDS011;25082;50.870;0.022;2022-07-29T02:21:33;2.53;;;1.05;;
37805;SDS011;25082;50.870;0.022;2022-07-29T02:24:00;5.05;;;1.95;;
37805;SDS011;25082;50.870;0.022;2022-07-29T02:26:27;1.40;;;1.00;;
37805;SDS011;25082;50.870;0.022;2022-07-29T02:28:56;2.20;;;0.93;;
37805;SDS011;25082;50.870;0.022;2022-07-29T02:31:24;2.42;;;1.20;;
37805;SDS011;25082;50.870;0.022;2022-07-29T02:33:53;3.28;;;1.30;;
37805;SDS011;25082;50.870;0.022;2022-07-29T02:36:21;3.70;;;1.02;;
37805;SDS011;25082;50.870;0.022;2022-07-29T02:38:48;2.97;;;1.38;;
37805;SDS011;25082;50.870;0.022;2022-07-29T02:43:56;1.92;;;1.10;;
37805;SDS011;25082;50.870;0.022;2022-07-29T02:46:27;1.65;;;0.90;;
37805;SDS011;25082;50.870;0.022;2022-07-29T02:49:02;1.92;;;1.25;;
37805;SDS011;25082;50.870;0.022;2022-07-29T02:51:41;2.03;;;1.23;;
37805;SDS011;25082;50.870;0.022;2022-07-29T02:54:10;1.27;;;0.90;;
37805;SDS011;25082;50.870;0.022;2022-07-29T02:56:43;3.33;;;1.40;;
37805;SDS011;25082;50.870;0.022;2022-07-29T02:59:11;2.08;;;1.05;;
37805;SDS011;25082;50.870;0.022;2022-07-29T03:01:42;2.60;;;1.10;;
37805;SDS011;25082;50.870;0.022;2022-07-29T03:04:09;1.95;;;1.20;;
37805;SDS011;25082;50.870;0.022;2022-07-29T03:06:37;2.90;;;1.25;;
37805;SDS011;25082;50.870;0.022;2022-07-29T03:09:08;3.38;;;1.38;;
37805;SDS011;25082;50.870;0.022;2022-07-29T03:11:36;1.42;;;1.10;;
37805;SDS011;25082;50.870;0.022;2022-07-29T03:14:02;2.88;;;1.38;;
37805;SDS011;25082;50.870;0.022;2022-07-29T03:16:30;2.35;;;1.20;;
37805;SDS011;25082;50.870;0.022;2022-07-29T03:18:56;4.63;;;1.35;;
37805;SDS011;25082;50.870;0.022;2022-07-29T03:21:22;2.15;;;1.20;;
37805;SDS011;25082;50.870;0.022;2022-07-29T03:23:48;1.83;;;1.10;;
37805;SDS011;25082;50.870;0.022;2022-07-29T03:26:14;1.92;;;1.25;;
37805;SDS011;25082;50.870;0.022;2022-07-29T03:28:40;2.58;;;1.17;;
37805;SDS011;25082;50.870;0.022;2022-07-29T03:31:06;2.47;;;1.50;;
37805;SDS011;25082;50.870;0.022;2022-07-29T03:33:31;3.13;;;1.40;;
37805;SDS011;25082;50.870;0.022;2022-07-29T03:35:57;2.92;;;1.13;;
37805;SDS011;25082;50.870;0.022;2022-07-29T03:38:23;2.45;;;1.33;;
37805;SDS011;25082;50.870;0.022;2022-07-29T03:40:53;2.97;;;1.88;;
37805;SDS011;25082;50.870;0.022;2022-07-29T03:43:21;2.40;;;1.25;;
37805;SDS011;25082;50.870;0.022;2022-07-29T03:45:50;1.60;;;1.10;;
37805;SDS011;25082;50.870;0.022;2022-07-29T03:48:19;2.60;;;1.30;;
37805;SDS011;25082;50.870;0.022;2022-07-29T03:50:47;2.67;;;1.17;;
37805;SDS011;25082;50.870;0.022;2022-07-29T03:53:15;2.05;;;1.10;;
37805;SDS011;25082;50.870;0.022;2022-07-29T03:55:42;3.38;;;1.48;;
37805;SDS011;25082;50.870;0.022;2022-07-29T03:58:10;2.00;;;1.10;;
37805;SDS011;25082;50.870;0.022;2022-07-29T04:00:37;1.58;;;1.10;;
37805;SDS011;25082;50.870;0.022;2022-07-29T04:03:04;1.25;;;1.00;;
37805;SDS011;25082;50.870;0.022;2022-07-29T04:05:30;1.83;;;1.15;;
37805;SDS011;25082;50.870;0.022;2022-07-29T04:07:55;2.33;;;1.13;;
37805;SDS011;25082;50.870;0.022;2022-07-29T04:10:21;1.83;;;1.10;;
37805;SDS011;25082;50.870;0.022;2022-07-29T04:12:50;2.65;;;1.33;;
37805;SDS011;25082;50.870;0.022;2022-07-29T04:15:16;2.95;;;1.60;;
37805;SDS011;25082;50.870;0.022;2022-07-29T04:17:42;2.33;;;1.30;;
37805;SDS011;25082;50.870;0.022;2022-07-29T04:20:08;2.72;;;1.17;;
37805;SDS011;25082;50.870;0.022;2022-07-29T04:22:34;1.33;;;1.10;;
37805;SDS011;25082;50.870;0.022;2022-07-29T04:25:00;1.52;;;1.02;;
37805;SDS011;25082;50.870;0.022;2022-07-29T04:27:26;1.02;;;1.00;;
37805;SDS011;25082;50.870;0.022;2022-07-29T04:29:51;1.85;;;1.33;;
37805;SDS011;25082;50.870;0.022;2022-07-29T04:32:17;1.60;;;0.93;;
37805;SDS011;25082;50.870;0.022;2022-07-29T04:34:43;1.98;;;1.35;;
37805;SDS011;25082;50.870;0.022;2022-07-29T04:37:11;2.40;;;1.00;;
37805;SDS011;25082;50.870;0.022;2022-07-29T04:39:37;2.47;;;1.10;;
37805;SDS011;25082;50.870;0.022;2022-07-29T04:42:03;3.13;;;1.20;;
37805;SDS011;25082;50.870;0.022;2022-07-29T04:44:29;4.20;;;1.75;;
37805;SDS011;25082;50.870;0.022;2022-07-29T04:46:55;1.85;;;1.10;;
37805;SDS011;25082;50.870;0.022;2022-07-29T04:49:22;2.85;;;1.13;;
37805;SDS011;25082;50.870;0.022;2022-07-29T04:51:48;2.45;;;1.30;;
37805;SDS011;25082;50.870;0.022;2022-07-29T04:54:14;1.80;;;1.10;;
37805;SDS011;25082;50.870;0.022;2022-07-29T04:56:39;3.83;;;1.42;;
37805;SDS011;25082;50.870;0.022;2022-07-29T04:59:06;1.92;;;1.33;;
37805;SDS011;25082;50.870;0.022;2022-07-29T05:01:32;5.28;;;2.13;;
37805;SDS011;25082;50.870;0.022;2022-07-29T05:03:58;3.95;;;1.20;;
37805;SDS011;25082;50.870;0.022;2022-07-29T05:06:24;2.70;;;0.77;;
37805;SDS011;25082;50.870;0.022;2022-07-29T05:08:50;1.77;;;0.90;;
37805;SDS011;25082;50.870;0.022;2022-07-29T05:11:15;1.90;;;0.98;;
37805;SDS011;25082;50.870;0.022;2022-07-29T05:13:41;1.98;;;1.10;;
37805;SDS011;25082;50.870;0.022;2022-07-29T05:16:07;6.53;;;1.30;;
37805;SDS011;25082;50.870;0.022;2022-07-29T05:18:33;1.67;;;1.08;;
37805;SDS011;25082;50.870;0.022;2022-07-29T05:20:59;2.30;;;1.05;;
37805;SDS011;25082;50.870;0.022;2022-07-29T05:23:25;1.70;;;1.10;;
37805;SDS011;25082;50.870;0.022;2022-07-29T05:25:51;1.90;;;1.17;;
37805;SDS011;25082;50.870;0.022;2022-07-29T05:28:16;1.38;;;0.93;;
37805;SDS011;25082;50.870;0.022;2022-07-29T05:30:42;1.55;;;1.10;;
37805;SDS011;25082;50.870;0.022;2022-07-29T05:33:09;2.28;;;1.27;;
37805;SDS011;25082;50.870;0.022;2022-07-29T05:35:35;2.60;;;1.10;;
37805;SDS011;25082;50.870;0.022;2022-07-29T05:38:02;2.45;;;1.38;;
37805;SDS011;25082;50.870;0.022;2022-07-29T05:40:28;2.17;;;1.25;;
37805;SDS011;25082;50.870;0.022;2022-07-29T05:42:54;1.83;;;1.10;;
37805;SDS011;25082;50.870;0.022;2022-07-29T05:45:20;2.17;;;1.00;;
37805;SDS011;25082;50.870;0.022;2022-07-29T05:47:45;1.70;;;0.90;;
37805;SDS011;25082;50.870;0.022;2022-07-29T05:50:11;1.55;;;1.33;;
37805;SDS011;25082;50.870;0.022;2022-07-29T05:52:38;1.52;;;0.98;;
37805;SDS011;25082;50.870;0.022;2022-07-29T05:55:04;2.38;;;0.95;;
37805;SDS011;25082;50.870;0.022;2022-07-29T05:57:30;3.22;;;1.13;;
37805;SDS011;25082;50.870;0.022;2022-07-29T05:59:57;1.98;;;1.10;;
37805;SDS011;25082;50.870;0.022;2022-07-29T06:02:23;3.28;;;1.02;;
37805;SDS011;25082;50.870;0.022;2022-07-29T06:04:48;4.68;;;1.10;;
37805;SDS011;25082;50.870;0.022;2022-07-29T06:07:14;1.92;;;1.40;;
37805;SDS011;25082;50.870;0.022;2022-07-29T06:09:41;1.52;;;1.10;;
37805;SDS011;25082;50.870;0.022;2022-07-29T06:12:07;1.83;;;0.93;;
37805;SDS011;25082;50.870;0.022;2022-07-29T06:14:34;2.67;;;1.08;;
37805;SDS011;25082;50.870;0.022;2022-07-29T06:17:00;2.28;;;1.20;;
37805;SDS011;25082;50.870;0.022;2022-07-29T06:19:26;2.17;;;1.45;;
37805;SDS011;25082;50.870;0.022;2022-07-29T06:21:51;3.20;;;1.30;;
37805;SDS011;25082;50.870;0.022;2022-07-29T06:24:17;3.33;;;1.00;;
37805;SDS011;25082;50.870;0.022;2022-07-29T06:26:43;2.25;;;1.13;;
37805;SDS011;25082;50.870;0.022;2022-07-29T06:29:09;1.08;;;0.98;;
37805;SDS011;25082;50.870;0.022;2022-07-29T06:31:35;1.52;;;1.00;;
37805;SDS011;25082;50.870;0.022;2022-07-29T06:34:02;2.08;;;1.30;;
37805;SDS011;25082;50.870;0.022;2022-07-29T06:36:28;1.85;;;1.05;;
37805;SDS011;25082;50.870;0.022;2022-07-29T06:38:54;1.60;;;1.20;;
37805;SDS011;25082;50.870;0.022;2022-07-29T06:41:20;3.28;;;1.00;;
37805;SDS011;25082;50.870;0.022;2022-07-29T06:43:46;1.42;;;0.93;;
37805;SDS011;25082;50.870;0.022;2022-07-29T06:46:15;2.40;;;1.20;;
37805;SDS011;25082;50.870;0.022;2022-07-29T06:48:44;1.30;;;1.02;;
37805;SDS011;25082;50.870;0.022;2022-07-29T06:51:10;1.42;;;1.30;;
37805;SDS011;25082;50.870;0.022;2022-07-29T06:53:37;2.03;;;1.35;;
37805;SDS011;25082;50.870;0.022;2022-07-29T06:56:04;2.15;;;1.48;;
37805;SDS011;25082;50.870;0.022;2022-07-29T06:58:33;2.85;;;1.38;;
37805;SDS011;25082;50.870;0.022;2022-07-29T07:01:01;1.42;;;1.08;;
37805;SDS011;25082;50.870;0.022;2022-07-29T07:03:28;4.03;;;1.35;;
37805;SDS011;25082;50.870;0.022;2022-07-29T07:05:54;4.30;;;1.65;;
37805;SDS011;25082;50.870;0.022;2022-07-29T07:08:20;3.03;;;1.38;;
37805;SDS011;25082;50.870;0.022;2022-07-29T07:10:47;3.00;;;1.27;;
37805;SDS011;25082;50.870;0.022;2022-07-29T07:13:13;4.53;;;1.30;;
37805;SDS011;25082;50.870;0.022;2022-07-29T07:15:42;3.35;;;1.27;;
37805;SDS011;25082;50.870;0.022;2022-07-29T07:18:08;1.30;;;0.88;;
37805;SDS011;25082;50.870;0.022;2022-07-29T07:20:34;1.23;;;1.00;;
37805;SDS011;25082;50.870;0.022;2022-07-29T07:23:01;3.28;;;1.27;;
37805;SDS011;25082;50.870;0.022;2022-07-29T07:25:27;1.80;;;1.10;;
37805;SDS011;25082;50.870;0.022;2022-07-29T07:27:53;1.75;;;1.00;;
37805;SDS011;25082;50.870;0.022;2022-07-29T07:30:19;3.22;;;1.45;;
37805;SDS011;25082;50.870;0.022;2022-07-29T07:32:45;1.58;;;1.00;;
37805;SDS011;25082;50.870;0.022;2022-07-29T07:35:11;1.45;;;1.00;;
37805;SDS011;25082;50.870;0.022;2022-07-29T07:37:37;1.17;;;0.82;;
37805;SDS011;25082;50.870;0.022;2022-07-29T07:40:05;1.85;;;1.10;;
37805;SDS011;25082;50.870;0.022;2022-07-29T07:42:32;2.20;;;1.00;;
37805;SDS011;25082;50.870;0.022;2022-07-29T07:44:58;1.15;;;0.93;;
37805;SDS011;25082;50.870;0.022;2022-07-29T07:47:24;1.45;;;0.90;;
37805;SDS011;25082;50.870;0.022;2022-07-29T07:49:50;2.78;;;1.25;;
37805;SDS011;25082;50.870;0.022;2022-07-29T07:52:16;2.33;;;1.13;;
37805;SDS011;25082;50.870;0.022;2022-07-29T07:54:44;3.13;;;0.90;;
37805;SDS011;25082;50.870;0.022;2022-07-29T07:57:10;2.40;;;0.95;;
37805;SDS011;25082;50.870;0.022;2022-07-29T07:59:36;2.53;;;1.13;;
37805;SDS011;25082;50.870;0.022;2022-07-29T08:02:02;1.70;;;1.05;;
37805;SDS011;25082;50.870;0.022;2022-07-29T08:04:28;2.80;;;1.48;;
37805;SDS011;25082;50.870;0.022;2022-07-29T08:06:55;2.67;;;1.58;;
37805;SDS011;25082;50.870;0.022;2022-07-29T08:09:22;1.60;;;1.00;;
37805;SDS011;25082;50.870;0.022;2022-07-29T08:11:49;1.75;;;1.17;;
37805;SDS011;25082;50.870;0.022;2022-07-29T08:14:15;1.27;;;0.82;;
37805;SDS011;25082;50.870;0.022;2022-07-29T08:16:41;1.55;;;0.85;;
37805;SDS011;25082;50.870;0.022;2022-07-29T08:19:07;1.08;;;0.65;;
37805;SDS011;25082;50.870;0.022;2022-07-29T08:21:34;1.50;;;1.15;;
37805;SDS011;25082;50.870;0.022;2022-07-29T08:24:00;1.73;;;1.13;;
37805;SDS011;25082;50.870;0.022;2022-07-29T08:26:44;1.83;;;1.20;;
37805;SDS011;25082;50.870;0.022;2022-07-29T08:29:11;1.23;;;0.90;;
37805;SDS011;25082;50.870;0.022;2022-07-29T08:31:37;1.17;;;0.80;;
37805;SDS011;25082;50.870;0.022;2022-07-29T08:34:04;2.42;;;1.10;;
37805;SDS011;25082;50.870;0.022;2022-07-29T08:36:30;2.83;;;1.20;;
37805;SDS011;25082;50.870;0.022;2022-07-29T08:38:57;2.08;;;1.17;;
37805;SDS011;25082;50.870;0.022;2022-07-29T08:41:23;1.00;;;0.90;;
37805;SDS011;25082;50.870;0.022;2022-07-29T08:43:49;2.05;;;0.90;;
37805;SDS011;25082;50.870;0.022;2022-07-29T08:46:16;1.50;;;0.93;;
37805;SDS011;25082;50.870;0.022;2022-07-29T08:48:42;2.38;;;0.85;;
37805;SDS011;25082;50.870;0.022;2022-07-29T08:51:11;2.15;;;0.90;;
37805;SDS011;25082;50.870;0.022;2022-07-29T08:53:43;1.95;;;1.35;;
37805;SDS011;25082;50.870;0.022;2022-07-29T08:56:12;1.90;;;1.27;;
37805;SDS011;25082;50.870;0.022;2022-07-29T08:58:39;3.95;;;1.30;;
37805;SDS011;25082;50.870;0.022;2022-07-29T09:01:06;1.60;;;1.13;;
37805;SDS011;25082;50.870;0.022;2022-07-29T09:03:33;1.65;;;1.02;;
37805;SDS011;25082;50.870;0.022;2022-07-29T09:06:02;0.82;;;0.80;;
37805;SDS011;25082;50.870;0.022;2022-07-29T09:08:29;1.48;;;1.10;;
37805;SDS011;25082;50.870;0.022;2022-07-29T09:10:57;1.75;;;0.90;;
37805;SDS011;25082;50.870;0.022;2022-07-29T09:13:25;1.35;;;1.00;;
37805;SDS011;25082;50.870;0.022;2022-07-29T09:15:51;1.30;;;0.90;;
37805;SDS011;25082;50.870;0.022;2022-07-29T09:21:16;1.30;;;0.90;;
37805;SDS011;25082;50.870;0.022;2022-07-29T09:26:33;2.95;;;0.80;;
37805;SDS011;25082;50.870;0.022;2022-07-29T09:29:07;5.18;;;1.20;;
37805;SDS011;25082;50.870;0.022;2022-07-29T09:31:35;3.88;;;1.20;;
37805;SDS011;25082;50.870;0.022;2022-07-29T09:34:02;3.90;;;1.48;;
37805;SDS011;25082;50.870;0.022;2022-07-29T09:36:29;7.15;;;1.63;;
37805;SDS011;25082;50.870;0.022;2022-07-29T09:39:01;3.15;;;1.55;;
37805;SDS011;25082;50.870;0.022;2022-07-29T09:41:28;21.48;;;1.80;;
37805;SDS011;25082;50.870;0.022;2022-07-29T09:43:57;6.85;;;2.72;;
37805;SDS011;25082;50.870;0.022;2022-07-29T09:46:24;10.70;;;2.22;;
37805;SDS011;25082;50.870;0.022;2022-07-29T09:49:07;5.45;;;1.60;;
37805;SDS011;25082;50.870;0.022;2022-07-29T09:51:34;10.98;;;1.95;;
37805;SDS011;25082;50.870;0.022;2022-07-29T09:54:00;5.32;;;1.50;;
37805;SDS011;25082;50.870;0.022;2022-07-29T09:56:39;6.10;;;1.67;;
37805;SDS011;25082;50.870;0.022;2022-07-29T09:59:05;4.60;;;1.70;;
37805;SDS011;25082;50.870;0.022;2022-07-29T10:01:32;5.25;;;2.33;;
37805;SDS011;25082;50.870;0.022;2022-07-29T10:03:58;5.82;;;2.08;;
37805;SDS011;25082;50.870;0.022;2022-07-29T10:06:24;3.53;;;1.73;;
37805;SDS011;25082;50.870;0.022;2022-07-29T10:08:50;5.57;;;1.90;;
37805;SDS011;25082;50.870;0.022;2022-07-29T10:11:16;3.90;;;1.65;;
37805;SDS011;25082;50.870;0.022;2022-07-29T10:13:44;6.82;;;1.70;;
37805;SDS011;25082;50.870;0.022;2022-07-29T10:16:11;4.10;;;1.92;;
37805;SDS011;25082;50.870;0.022;2022-07-29T10:18:39;7.07;;;3.17;;
37805;SDS011;25082;50.870;0.022;2022-07-29T10:21:09;6.00;;;1.98;;
37805;SDS011;25082;50.870;0.022;2022-07-29T10:23:35;6.07;;;2.28;;
37805;SDS011;25082;50.870;0.022;2022-07-29T10:26:02;6.85;;;1.88;;
37805;SDS011;25082;50.870;0.022;2022-07-29T10:28:32;4.88;;;1.75;;
37805;SDS011;25082;50.870;0.022;2022-07-29T10:31:03;4.20;;;1.75;;
37805;SDS011;25082;50.870;0.022;2022-07-29T10:39:05;4.97;;;1.88;;
37805;SDS011;25082;50.870;0.022;2022-07-29T10:44:40;4.72;;;2.25;;
37805;SDS011;25082;50.870;0.022;2022-07-29T10:47:13;5.38;;;1.50;;
37805;SDS011;25082;50.870;0.022;2022-07-29T10:49:57;3.55;;;1.67;;
37805;SDS011;25082;50.870;0.022;2022-07-29T10:55:38;3.50;;;2.00;;
37805;SDS011;25082;50.870;0.022;2022-07-29T10:58:22;4.07;;;1.48;;
37805;SDS011;25082;50.870;0.022;2022-07-29T11:00:52;4.05;;;1.85;;
37805;SDS011;25082;50.870;0.022;2022-07-29T11:06:06;6.07;;;1.80;;
37805;SDS011;25082;50.870;0.022;2022-07-29T11:08:32;7.75;;;2.25;;
37805;SDS011;25082;50.870;0.022;2022-07-29T11:13:57;4.15;;;1.75;;
37805;SDS011;25082;50.870;0.022;2022-07-29T11:16:23;1.95;;;1.63;;
37805;SDS011;25082;50.870;0.022;2022-07-29T11:21:36;11.73;;;2.20;;
37805;SDS011;25082;50.870;0.022;2022-07-29T11:27:15;4.28;;;1.58;;
37805;SDS011;25082;50.870;0.022;2022-07-29T11:32:36;4.88;;;2.38;;
37805;SDS011;25082;50.870;0.022;2022-07-29T11:50:16;6.10;;;2.10;;
37805;SDS011;25082;50.870;0.022;2022-07-29T11:52:51;9.40;;;1.95;;
37805;SDS011;25082;50.870;0.022;2022-07-29T11:55:18;3.35;;;1.58;;
37805;SDS011;25082;50.870;0.022;2022-07-29T11:57:45;3.33;;;1.90;;
37805;SDS011;25082;50.870;0.022;2022-07-29T12:00:33;4.10;;;1.20;;
37805;SDS011;25082;50.870;0.022;2022-07-29T12:03:04;4.07;;;2.05;;
37805;SDS011;25082;50.870;0.022;2022-07-29T12:05:32;4.53;;;1.35;;
37805;SDS011;25082;50.870;0.022;2022-07-29T12:08:14;2.05;;;1.83;;
37805;SDS011;25082;50.870;0.022;2022-07-29T12:10:44;2.45;;;1.27;;
37805;SDS011;25082;50.870;0.022;2022-07-29T12:13:11;5.18;;;2.00;;
37805;SDS011;25082;50.870;0.022;2022-07-29T12:15:38;4.50;;;2.00;;
37805;SDS011;25082;50.870;0.022;2022-07-29T12:18:14;4.53;;;2.10;;
37805;SDS011;25082;50.870;0.022;2022-07-29T12:20:42;5.43;;;2.15;;
37805;SDS011;25082;50.870;0.022;2022-07-29T12:23:08;6.75;;;2.10;;
37805;SDS011;25082;50.870;0.022;2022-07-29T12:25:37;2.88;;;2.22;;
37805;SDS011;25082;50.870;0.022;2022-07-29T12:28:04;3.58;;;2.20;;
37805;SDS011;25082;50.870;0.022;2022-07-29T12:30:39;6.28;;;2.97;;
37805;SDS011;25082;50.870;0.022;2022-07-29T12:33:13;8.27;;;3.85;;
37805;SDS011;25082;50.870;0.022;2022-07-29T12:35:39;10.55;;;4.15;;
37805;SDS011;25082;50.870;0.022;2022-07-29T12:38:08;15.95;;;14.02;;
37805;SDS011;25082;50.870;0.022;2022-07-29T12:40:35;16.15;;;10.82;;
37805;SDS011;25082;50.870;0.022;2022-07-29T12:43:11;45.83;;;9.43;;
37805;SDS011;25082;50.870;0.022;2022-07-29T12:45:43;16.25;;;8.45;;
37805;SDS011;25082;50.870;0.022;2022-07-29T12:48:10;10.90;;;6.68;;
37805;SDS011;25082;50.870;0.022;2022-07-29T12:50:50;9.43;;;5.47;;
37805;SDS011;25082;50.870;0.022;2022-07-29T12:53:21;10.48;;;5.47;;
37805;SDS011;25082;50.870;0.022;2022-07-29T12:55:48;9.48;;;5.03;;
37805;SDS011;25082;50.870;0.022;2022-07-29T13:01:09;9.95;;;4.78;;
37805;SDS011;25082;50.870;0.022;2022-07-29T13:03:52;12.13;;;5.20;;
37805;SDS011;25082;50.870;0.022;2022-07-29T13:11:33;12.05;;;3.97;;
37805;SDS011;25082;50.870;0.022;2022-07-29T13:14:33;7.60;;;3.00;;
37805;SDS011;25082;50.870;0.022;2022-07-29T13:17:10;12.80;;;4.00;;
37805;SDS011;25082;50.870;0.022;2022-07-29T13:22:12;9.10;;;4.20;;
37805;SDS011;25082;50.870;0.022;2022-07-29T13:24:46;10.57;;;4.15;;
37805;SDS011;25082;50.870;0.022;2022-07-29T13:27:18;9.38;;;3.00;;
37805;SDS011;25082;50.870;0.022;2022-07-29T13:29:47;6.95;;;2.47;;
37805;SDS011;25082;50.870;0.022;2022-07-29T13:32:13;8.55;;;2.90;;
37805;SDS011;25082;50.870;0.022;2022-07-29T13:34:39;4.75;;;2.00;;
37805;SDS011;25082;50.870;0.022;2022-07-29T13:37:05;7.25;;;2.72;;
37805;SDS011;25082;50.870;0.022;2022-07-29T13:39:31;5.25;;;2.00;;
37805;SDS011;25082;50.870;0.022;2022-07-29T13:41:57;6.72;;;2.45;;
37805;SDS011;25082;50.870;0.022;2022-07-29T13:44:23;5.63;;;2.40;;
37805;SDS011;25082;50.870;0.022;2022-07-29T13:46:49;5.85;;;2.08;;
37805;SDS011;25082;50.870;0.022;2022-07-29T13:49:15;6.60;;;2.13;;
37805;SDS011;25082;50.870;0.022;2022-07-29T13:51:41;4.70;;;1.92;;
37805;SDS011;25082;50.870;0.022;2022-07-29T13:54:06;8.98;;;2.50;;
37805;SDS011;25082;50.870;0.022;2022-07-29T13:56:33;7.45;;;2.05;;
37805;SDS011;25082;50.870;0.022;2022-07-29T13:58:59;5.97;;;2.15;;
37805;SDS011;25082;50.870;0.022;2022-07-29T14:01:25;7.10;;;2.30;;
37805;SDS011;25082;50.870;0.022;2022-07-29T14:03:52;3.88;;;2.03;;
37805;SDS011;25082;50.870;0.022;2022-07-29T14:06:18;4.20;;;2.13;;
37805;SDS011;25082;50.870;0.022;2022-07-29T14:08:44;3.85;;;2.28;;
37805;SDS011;25082;50.870;0.022;2022-07-29T14:11:10;4.15;;;2.10;;
37805;SDS011;25082;50.870;0.022;2022-07-29T14:13:36;5.30;;;2.42;;
37805;SDS011;25082;50.870;0.022;2022-07-29T14:16:01;4.50;;;2.08;;
37805;SDS011;25082;50.870;0.022;2022-07-29T14:18:27;6.10;;;2.40;;
37805;SDS011;25082;50.870;0.022;2022-07-29T14:20:53;7.97;;;2.28;;
37805;SDS011;25082;50.870;0.022;2022-07-29T14:23:19;8.38;;;2.13;;
37805;SDS011;25082;50.870;0.022;2022-07-29T14:25:45;6.35;;;2.22;;
37805;SDS011;25082;50.870;0.022;2022-07-29T14:28:11;6.47;;;2.35;;
37805;SDS011;25082;50.870;0.022;2022-07-29T14:30:36;4.15;;;1.77;;
37805;SDS011;25082;50.870;0.022;2022-07-29T14:33:02;6.10;;;3.22;;
37805;SDS011;25082;50.870;0.022;2022-07-29T14:35:28;5.45;;;2.38;;
37805;SDS011;25082;50.870;0.022;2022-07-29T14:37:54;5.65;;;2.67;;
37805;SDS011;25082;50.870;0.022;2022-07-29T14:40:19;5.38;;;2.28;;
37805;SDS011;25082;50.870;0.022;2022-07-29T14:42:45;6.43;;;2.60;;
37805;SDS011;25082;50.870;0.022;2022-07-29T14:45:11;15.32;;;3.33;;
37805;SDS011;25082;50.870;0.022;2022-07-29T14:47:37;4.78;;;2.15;;
37805;SDS011;25082;50.870;0.022;2022-07-29T14:50:04;5.82;;;1.98;;
37805;SDS011;25082;50.870;0.022;2022-07-29T14:52:31;6.97;;;2.75;;
37805;SDS011;25082;50.870;0.022;2022-07-29T14:54:57;7.75;;;2.50;;
37805;SDS011;25082;50.870;0.022;2022-07-29T14:57:23;6.30;;;2.25;;
37805;SDS011;25082;50.870;0.022;2022-07-29T14:59:49;5.47;;;2.28;;
37805;SDS011;25082;50.870;0.022;2022-07-29T15:02:15;6.68;;;2.42;;
37805;SDS011;25082;50.870;0.022;2022-07-29T15:04:41;6.82;;;2.10;;
37805;SDS011;25082;50.870;0.022;2022-07-29T15:07:07;5.63;;;2.38;;
37805;SDS011;25082;50.870;0.022;2022-07-29T15:09:33;5.18;;;2.40;;
37805;SDS011;25082;50.870;0.022;2022-07-29T15:11:59;10.30;;;2.70;;
37805;SDS011;25082;50.870;0.022;2022-07-29T15:14:24;8.07;;;2.72;;
37805;SDS011;25082;50.870;0.022;2022-07-29T15:16:50;9.55;;;2.72;;
37805;SDS011;25082;50.870;0.022;2022-07-29T15:19:16;7.13;;;2.28;;
37805;SDS011;25082;50.870;0.022;2022-07-29T15:21:42;5.70;;;2.20;;
37805;SDS011;25082;50.870;0.022;2022-07-29T15:24:07;4.63;;;2.50;;
37805;SDS011;25082;50.870;0.022;2022-07-29T15:26:33;6.30;;;2.78;;
37805;SDS011;25082;50.870;0.022;2022-07-29T15:28:59;9.70;;;2.40;;
37805;SDS011;25082;50.870;0.022;2022-07-29T15:31:25;6.95;;;2.50;;
37805;SDS011;25082;50.870;0.022;2022-07-29T15:33:51;6.72;;;2.42;;
37805;SDS011;25082;50.870;0.022;2022-07-29T15:36:16;8.55;;;2.13;;
37805;SDS011;25082;50.870;0.022;2022-07-29T15:38:42;6.55;;;2.55;;
37805;SDS011;25082;50.870;0.022;2022-07-29T15:41:09;6.50;;;2.80;;
37805;SDS011;25082;50.870;0.022;2022-07-29T15:43:39;5.90;;;2.10;;
37805;SDS011;25082;50.870;0.022;2022-07-29T15:46:10;4.50;;;3.13;;
37805;SDS011;25082;50.870;0.022;2022-07-29T15:49:00;4.72;;;2.40;;
37805;SDS011;25082;50.870;0.022;2022-07-29T15:51:29;3.75;;;1.85;;
37805;SDS011;25082;50.870;0.022;2022-07-29T15:53:56;9.88;;;2.47;;
37805;SDS011;25082;50.870;0.022;2022-07-29T15:56:22;9.43;;;2.03;;
37805;SDS011;25082;50.870;0.022;2022-07-29T15:58:48;3.90;;;1.92;;
37805;SDS011;25082;50.870;0.022;2022-07-29T16:01:14;9.02;;;2.88;;
37805;SDS011;25082;50.870;0.022;2022-07-29T16:03:40;5.45;;;2.55;;
37805;SDS011;25082;50.870;0.022;2022-07-29T16:06:06;6.82;;;2.10;;
37805;SDS011;25082;50.870;0.022;2022-07-29T16:08:32;3.40;;;2.30;;
37805;SDS011;25082;50.870;0.022;2022-07-29T16:10:58;6.93;;;2.00;;
37805;SDS011;25082;50.870;0.022;2022-07-29T16:13:23;5.55;;;2.72;;